createdAt,value
2023-04-30T00:02:20.777Z,16.04
2023-04-30T00:04:47.969Z,16.00
2023-04-30T00:07:15.034Z,16.00
2023-04-30T00:09:42.164Z,15.94
2023-04-30T00:12:09.206Z,15.94
2023-04-30T00:14:36.918Z,15.94
2023-04-30T00:17:03.962Z,15.88
2023-04-30T00:19:31.026Z,15.88
2023-04-30T00:21:57.982Z,15.86
2023-04-30T00:24:24.926Z,15.86
2023-04-30T00:26:51.853Z,15.83
2023-04-30T00:29:18.825Z,15.82
2023-04-30T00:31:46.005Z,15.80
2023-04-30T00:34:13.048Z,15.78
2023-04-30T00:36:40.980Z,15.74
2023-04-30T00:39:08.113Z,15.74
2023-04-30T00:41:36.566Z,15.72
2023-04-30T00:44:03.669Z,15.68
2023-04-30T00:46:31.320Z,15.69
2023-04-30T00:48:58.746Z,15.68
2023-04-30T00:51:26.995Z,15.67
2023-04-30T00:53:54.448Z,15.66
2023-04-30T00:56:21.592Z,15.64
2023-04-30T00:58:51.436Z,15.60
2023-04-30T01:01:18.713Z,15.60
2023-04-30T01:03:46.425Z,15.60
2023-04-30T01:06:13.580Z,15.60
2023-04-30T01:08:40.852Z,15.59
2023-04-30T01:11:07.717Z,15.59
2023-04-30T01:14:03.688Z,15.56
2023-04-30T01:16:36.633Z,15.55
2023-04-30T01:19:29.928Z,15.54
2023-04-30T01:22:03.852Z,15.53
2023-04-30T01:24:39.945Z,15.52
2023-04-30T01:27:32.296Z,15.52
2023-04-30T01:30:02.396Z,15.50
2023-04-30T01:32:29.463Z,15.50
2023-04-30T01:34:56.520Z,15.49
2023-04-30T01:37:28.995Z,15.48
2023-04-30T01:40:14.338Z,15.48
2023-04-30T01:43:12.851Z,15.47
2023-04-30T01:46:08.744Z,15.47
2023-04-30T01:48:53.929Z,15.44
2023-04-30T01:51:28.839Z,15.44
2023-04-30T01:54:03.498Z,15.42
2023-04-30T01:56:54.209Z,15.41
2023-04-30T01:59:22.145Z,15.42
2023-04-30T02:01:49.138Z,15.41
2023-04-30T02:04:16.374Z,15.40
2023-04-30T02:06:43.355Z,15.41
2023-04-30T02:09:11.086Z,15.41
2023-04-30T02:11:38.122Z,15.39
2023-04-30T02:14:05.037Z,15.38
2023-04-30T02:16:32.168Z,15.38
2023-04-30T02:18:59.265Z,15.38
2023-04-30T02:21:27.480Z,15.37
2023-04-30T02:23:54.975Z,15.36
2023-04-30T02:26:22.042Z,15.36
2023-04-30T02:28:49.147Z,15.36
2023-04-30T02:31:16.166Z,15.37
2023-04-30T02:33:43.296Z,15.38
2023-04-30T02:36:10.809Z,15.39
2023-04-30T02:38:37.857Z,15.38
2023-04-30T02:41:04.891Z,15.35
2023-04-30T02:43:32.102Z,15.38
2023-04-30T02:45:59.246Z,15.39
2023-04-30T02:48:26.272Z,15.39
2023-04-30T02:50:53.310Z,15.39
2023-04-30T02:53:20.344Z,15.39
2023-04-30T02:55:47.594Z,15.39
2023-04-30T02:58:14.570Z,15.39
2023-04-30T03:00:41.931Z,15.38
2023-04-30T03:03:09.131Z,15.38
2023-04-30T03:05:36.425Z,15.39
2023-04-30T03:08:03.629Z,15.39
2023-04-30T03:10:30.725Z,15.37
2023-04-30T03:12:58.231Z,15.38
2023-04-30T03:15:25.219Z,15.38
2023-04-30T03:17:52.263Z,15.38
2023-04-30T03:20:19.397Z,15.35
2023-04-30T03:22:46.417Z,15.36
2023-04-30T03:25:13.397Z,15.40
2023-04-30T03:27:40.328Z,15.40
2023-04-30T03:30:08.054Z,15.41
2023-04-30T03:32:35.094Z,15.39
2023-04-30T03:35:02.061Z,15.39
2023-04-30T03:37:29.003Z,15.38
2023-04-30T03:39:56.190Z,15.40
2023-04-30T03:42:23.723Z,15.41
2023-04-30T03:44:51.043Z,15.40
2023-04-30T03:47:18.431Z,15.40
2023-04-30T03:49:45.599Z,15.41
2023-04-30T03:52:12.787Z,15.42
2023-04-30T03:54:39.922Z,15.41
2023-04-30T03:57:08.258Z,15.42
2023-04-30T03:59:35.647Z,15.43
2023-04-30T04:02:02.856Z,15.41
2023-04-30T04:04:30.919Z,15.43
2023-04-30T04:06:58.493Z,15.42
2023-04-30T04:09:26.037Z,15.44
2023-04-30T04:11:52.942Z,15.45
2023-04-30T04:14:19.942Z,15.44
2023-04-30T04:16:47.111Z,15.47
2023-04-30T04:19:16.780Z,15.47
2023-04-30T04:21:43.756Z,15.48
2023-04-30T04:24:10.845Z,15.49
2023-04-30T04:26:38.715Z,15.47
2023-04-30T04:29:05.775Z,15.48
2023-04-30T04:31:32.824Z,15.48
2023-04-30T04:34:01.226Z,15.48
2023-04-30T04:36:29.078Z,15.48
2023-04-30T04:38:58.029Z,15.52
2023-04-30T04:41:25.709Z,15.53
2023-04-30T04:43:53.206Z,15.55
2023-04-30T04:46:21.189Z,15.52
2023-04-30T04:48:48.291Z,15.52
2023-04-30T04:51:15.417Z,15.53
2023-04-30T04:53:42.347Z,15.57
2023-04-30T04:56:09.470Z,15.58
2023-04-30T04:58:36.609Z,15.62
2023-04-30T05:01:05.467Z,15.66
2023-04-30T05:03:33.984Z,15.69
2023-04-30T05:06:01.174Z,15.69
2023-04-30T05:08:28.162Z,15.72
2023-04-30T05:10:55.424Z,15.74
2023-04-30T05:13:22.467Z,15.76
2023-04-30T05:15:54.038Z,15.79
2023-04-30T05:18:21.187Z,15.79
2023-04-30T05:20:48.264Z,15.76
2023-04-30T05:23:15.245Z,15.72
2023-04-30T05:25:42.621Z,15.68
2023-04-30T05:28:09.601Z,15.56
2023-04-30T05:30:36.917Z,15.59
2023-04-30T05:33:04.049Z,15.62
2023-04-30T05:35:31.991Z,15.65
2023-04-30T05:37:59.009Z,15.67
2023-04-30T05:40:26.006Z,15.71
2023-04-30T05:42:53.027Z,15.72
2023-04-30T05:45:20.179Z,15.76
2023-04-30T05:47:47.280Z,15.79
2023-04-30T05:50:14.463Z,15.79
2023-04-30T05:52:41.483Z,15.82
2023-04-30T05:55:10.026Z,15.81
2023-04-30T05:57:37.156Z,15.76
2023-04-30T06:00:07.578Z,15.77
2023-04-30T06:02:34.669Z,15.82
2023-04-30T06:05:03.630Z,15.82
2023-04-30T06:07:31.106Z,15.85
2023-04-30T06:09:58.306Z,15.90
2023-04-30T06:12:25.439Z,15.90
2023-04-30T06:14:52.704Z,15.91
2023-04-30T06:17:20.058Z,15.90
2023-04-30T06:19:47.118Z,15.85
2023-04-30T06:22:14.149Z,15.86
2023-04-30T06:24:41.116Z,15.89
2023-04-30T06:27:08.087Z,15.95
2023-04-30T06:29:35.281Z,15.93
2023-04-30T06:32:02.453Z,15.97
2023-04-30T06:34:29.747Z,15.94
2023-04-30T06:36:57.127Z,15.97
2023-04-30T06:39:24.115Z,16.00
2023-04-30T06:41:51.251Z,16.00
2023-04-30T06:44:19.376Z,16.00
2023-04-30T06:46:46.509Z,16.03
2023-04-30T06:49:13.560Z,16.03
2023-04-30T06:51:43.392Z,16.02
2023-04-30T06:54:11.531Z,16.03
2023-04-30T06:56:39.886Z,15.95
2023-04-30T06:59:07.301Z,15.60
2023-04-30T07:01:34.505Z,15.45
2023-04-30T07:04:02.357Z,15.65
2023-04-30T07:06:29.755Z,15.79
2023-04-30T07:08:57.836Z,15.93
2023-04-30T07:11:24.856Z,15.96
2023-04-30T07:13:52.016Z,15.93
2023-04-30T07:16:19.140Z,15.99
2023-04-30T07:18:49.317Z,16.03
2023-04-30T07:21:16.631Z,16.07
2023-04-30T07:23:45.724Z,16.09
2023-04-30T07:26:13.308Z,16.12
2023-04-30T07:28:40.365Z,16.17
2023-04-30T07:31:08.216Z,16.19
2023-04-30T07:33:35.524Z,16.23
2023-04-30T07:36:02.615Z,16.27
2023-04-30T07:38:29.988Z,16.29
2023-04-30T07:41:00.213Z,16.31
2023-04-30T07:43:28.762Z,16.34
2023-04-30T07:45:57.149Z,16.36
2023-04-30T07:48:24.419Z,16.37
2023-04-30T07:50:52.931Z,16.42
2023-04-30T07:53:20.428Z,16.45
2023-04-30T07:55:48.246Z,16.51
2023-04-30T07:58:15.436Z,16.53
2023-04-30T08:00:42.479Z,16.59
2023-04-30T08:03:09.726Z,16.63
2023-04-30T08:05:37.049Z,16.69
2023-04-30T08:08:04.304Z,16.79
2023-04-30T08:10:32.469Z,16.89
2023-04-30T08:12:59.613Z,16.95
2023-04-30T08:15:28.728Z,17.03
2023-04-30T08:17:55.972Z,17.11
2023-04-30T08:20:23.952Z,17.20
2023-04-30T08:22:51.609Z,17.29
2023-04-30T08:25:18.698Z,17.37
2023-04-30T08:27:47.312Z,17.44
2023-04-30T08:30:14.606Z,17.52
2023-04-30T08:32:41.933Z,17.58
2023-04-30T08:35:09.662Z,17.67
2023-04-30T08:37:36.913Z,17.70
2023-04-30T08:40:05.098Z,17.69
2023-04-30T08:42:37.208Z,17.70
2023-04-30T08:45:05.558Z,17.73
2023-04-30T08:47:33.740Z,17.78
2023-04-30T08:50:00.957Z,17.83
2023-04-30T08:52:30.670Z,17.90
2023-04-30T08:55:01.487Z,18.00
2023-04-30T08:57:28.631Z,18.09
2023-04-30T08:59:56.072Z,18.21
2023-04-30T09:02:23.679Z,18.33
2023-04-30T09:04:51.074Z,18.46
2023-04-30T09:07:18.896Z,18.53
2023-04-30T09:09:45.905Z,18.67
2023-04-30T09:12:19.334Z,18.72
2023-04-30T09:15:04.935Z,18.81
2023-04-30T09:17:33.470Z,18.77
2023-04-30T09:20:14.376Z,18.87
2023-04-30T09:22:43.163Z,19.01
2023-04-30T09:25:11.653Z,19.09
2023-04-30T09:27:38.956Z,19.14
2023-04-30T09:30:08.388Z,19.12
2023-04-30T09:32:35.522Z,19.15
2023-04-30T09:35:02.611Z,19.20
2023-04-30T09:37:37.746Z,19.31
2023-04-30T09:40:05.565Z,19.27
2023-04-30T09:42:32.631Z,19.23
2023-04-30T09:44:59.775Z,19.23
2023-04-30T09:47:31.070Z,19.22
2023-04-30T09:50:00.645Z,19.21
2023-04-30T09:52:27.797Z,19.25
2023-04-30T09:54:55.034Z,19.31
2023-04-30T09:57:24.383Z,19.31
2023-04-30T09:59:53.479Z,19.24
2023-04-30T10:02:23.289Z,19.18
2023-04-30T10:04:58.623Z,19.19
2023-04-30T10:07:32.617Z,19.19
2023-04-30T10:10:05.601Z,19.08
2023-04-30T10:12:41.226Z,19.09
2023-04-30T10:15:24.269Z,19.11
2023-04-30T10:18:14.624Z,19.16
2023-04-30T10:20:42.854Z,19.28
2023-04-30T10:23:09.937Z,19.25
2023-04-30T10:25:39.279Z,19.26
2023-04-30T10:28:08.492Z,19.32
2023-04-30T10:30:36.818Z,19.32
2023-04-30T10:33:10.348Z,19.32
2023-04-30T10:36:13.923Z,19.32
2023-04-30T10:38:41.606Z,19.21
2023-04-30T10:41:09.927Z,19.06
2023-04-30T10:43:37.365Z,19.02
2023-04-30T10:46:05.159Z,18.92
2023-04-30T10:48:36.110Z,18.93
2023-04-30T10:51:03.097Z,18.97
2023-04-30T10:53:34.126Z,18.92
2023-04-30T10:56:07.052Z,18.86
2023-04-30T10:58:35.290Z,18.84
2023-04-30T11:01:16.341Z,18.83
2023-04-30T11:04:04.033Z,18.82
2023-04-30T11:06:51.127Z,18.82
2023-04-30T11:09:18.286Z,18.90
2023-04-30T11:11:47.280Z,18.84
2023-04-30T11:14:21.270Z,18.83
2023-04-30T11:16:54.248Z,18.83
2023-04-30T11:19:25.245Z,18.76
2023-04-30T11:22:04.189Z,18.71
2023-04-30T11:24:59.586Z,18.70
2023-04-30T11:27:29.236Z,18.73
2023-04-30T11:29:59.568Z,18.76
2023-04-30T11:32:33.631Z,18.83
2023-04-30T11:35:02.523Z,18.68
2023-04-30T11:37:46.764Z,18.76
2023-04-30T11:40:15.134Z,18.80
2023-04-30T11:42:48.641Z,18.79
2023-04-30T11:45:18.138Z,18.83
2023-04-30T11:47:50.974Z,18.81
2023-04-30T11:50:27.762Z,18.85
2023-04-30T11:52:58.594Z,18.83
2023-04-30T11:55:27.021Z,18.85
2023-04-30T11:57:56.329Z,18.84
2023-04-30T12:00:29.054Z,18.83
2023-04-30T12:02:57.356Z,18.84
2023-04-30T12:05:26.994Z,18.83
2023-04-30T12:07:57.375Z,18.83
2023-04-30T12:10:26.236Z,18.81
2023-04-30T12:12:55.024Z,18.81
2023-04-30T12:15:27.514Z,18.82
2023-04-30T12:17:56.750Z,18.77
2023-04-30T12:20:27.179Z,18.76
2023-04-30T12:22:54.718Z,18.71
2023-04-30T12:25:23.380Z,18.56
2023-04-30T12:27:53.148Z,18.63
2023-04-30T12:30:22.037Z,18.65
2023-04-30T12:32:53.684Z,18.64
2023-04-30T12:35:23.886Z,18.62
2023-04-30T12:38:02.256Z,18.64
2023-04-30T12:40:29.321Z,18.64
2023-04-30T12:43:07.072Z,18.67
2023-04-30T12:45:52.432Z,18.68
2023-04-30T12:48:22.046Z,18.66
2023-04-30T12:50:56.929Z,18.62
2023-04-30T12:53:24.492Z,18.59
2023-04-30T12:56:15.708Z,18.58
2023-04-30T12:58:45.934Z,18.60
2023-04-30T13:01:14.040Z,18.61
2023-04-30T13:03:41.697Z,18.62
2023-04-30T13:06:10.603Z,18.64
2023-04-30T13:08:49.849Z,18.65
2023-04-30T13:11:24.740Z,18.61
2023-04-30T13:13:52.169Z,18.64
2023-04-30T13:16:19.461Z,18.65
2023-04-30T13:18:47.367Z,18.65
2023-04-30T13:21:14.427Z,18.66
2023-04-30T13:23:51.941Z,18.68
2023-04-30T13:26:20.892Z,18.70
2023-04-30T13:28:48.119Z,18.65
2023-04-30T13:31:15.218Z,18.64
2023-04-30T13:33:42.645Z,18.63
2023-04-30T13:36:10.335Z,18.66
2023-04-30T13:38:37.467Z,18.68
2023-04-30T13:41:04.648Z,18.68
2023-04-30T13:43:31.832Z,18.67
2023-04-30T13:45:59.324Z,18.69
2023-04-30T13:48:26.431Z,18.70
2023-04-30T13:50:53.525Z,18.71
2023-04-30T13:53:20.495Z,18.71
2023-04-30T13:55:47.583Z,18.69
2023-04-30T13:58:14.996Z,18.61
2023-04-30T14:00:42.145Z,18.65
2023-04-30T14:03:11.930Z,18.71
2023-04-30T14:05:39.752Z,18.73
2023-04-30T14:08:07.315Z,18.77
2023-04-30T14:10:34.373Z,18.79
2023-04-30T14:13:01.367Z,18.83
2023-04-30T14:15:30.973Z,18.77
2023-04-30T14:17:58.572Z,18.74
2023-04-30T14:20:26.055Z,18.48
2023-04-30T14:22:53.363Z,18.62
2023-04-30T14:25:20.761Z,18.70
2023-04-30T14:27:48.013Z,18.74
2023-04-30T14:30:15.341Z,18.79
2023-04-30T14:32:42.484Z,18.84
2023-04-30T14:35:10.229Z,18.85
2023-04-30T14:37:37.234Z,18.88
2023-04-30T14:40:07.021Z,18.97
2023-04-30T14:42:34.351Z,19.04
2023-04-30T14:45:01.442Z,19.08
2023-04-30T14:47:29.027Z,19.05
2023-04-30T14:49:57.497Z,19.07
2023-04-30T14:52:25.097Z,19.11
2023-04-30T14:54:52.221Z,19.17
2023-04-30T14:57:19.594Z,19.16
2023-04-30T14:59:46.971Z,19.15
2023-04-30T15:02:14.748Z,19.21
2023-04-30T15:04:46.186Z,19.22
2023-04-30T15:07:13.526Z,19.17
2023-04-30T15:09:40.673Z,19.18
2023-04-30T15:12:07.949Z,19.22
2023-04-30T15:14:34.834Z,19.24
2023-04-30T15:17:02.111Z,19.26
2023-04-30T15:19:30.261Z,19.26
2023-04-30T15:21:57.219Z,19.28
2023-04-30T15:24:24.371Z,19.19
2023-04-30T15:26:54.880Z,18.91
2023-04-30T15:29:22.089Z,18.89
2023-04-30T15:31:52.306Z,18.89
2023-04-30T15:34:20.812Z,18.66
2023-04-30T15:36:48.356Z,18.53
2023-04-30T15:39:15.874Z,18.73
2023-04-30T15:41:45.114Z,18.87
2023-04-30T15:44:14.554Z,18.98
2023-04-30T15:46:42.879Z,19.05
2023-04-30T15:49:10.825Z,19.10
2023-04-30T15:51:39.022Z,19.17
2023-04-30T15:54:11.627Z,19.14
2023-04-30T15:56:38.938Z,19.16
2023-04-30T15:59:06.767Z,19.21
2023-04-30T16:01:34.196Z,19.23
2023-04-30T16:04:02.009Z,19.23
2023-04-30T16:06:32.922Z,19.24
2023-04-30T16:09:00.132Z,19.28
2023-04-30T16:11:27.227Z,19.27
2023-04-30T16:13:55.010Z,19.24
2023-04-30T16:16:23.665Z,19.26
2023-04-30T16:18:51.387Z,19.29
2023-04-30T16:21:18.516Z,19.26
2023-04-30T16:23:48.027Z,19.28
2023-04-30T16:26:19.666Z,19.29
2023-04-30T16:28:50.307Z,19.19
2023-04-30T16:31:18.826Z,18.92
2023-04-30T16:33:46.054Z,19.01
2023-04-30T16:36:13.209Z,19.12
2023-04-30T16:38:40.287Z,19.15
2023-04-30T16:41:07.344Z,19.18
2023-04-30T16:43:34.411Z,19.20
2023-04-30T16:46:01.482Z,19.20
2023-04-30T16:48:28.701Z,19.25
2023-04-30T16:50:55.917Z,19.23
2023-04-30T16:53:23.079Z,19.17
2023-04-30T16:55:52.007Z,19.15
2023-04-30T16:58:19.385Z,19.18
2023-04-30T17:00:46.489Z,19.17
2023-04-30T17:03:14.008Z,19.14
2023-04-30T17:05:41.712Z,19.16
2023-04-30T17:08:09.054Z,19.19
2023-04-30T17:10:36.421Z,19.18
2023-04-30T17:13:06.105Z,19.21
2023-04-30T17:15:33.477Z,19.20
2023-04-30T17:18:08.365Z,19.19
2023-04-30T17:20:35.897Z,19.17
2023-04-30T17:23:03.660Z,19.15
2023-04-30T17:25:32.358Z,19.08
2023-04-30T17:28:02.710Z,19.08
2023-04-30T17:30:29.946Z,19.08
2023-04-30T17:32:57.220Z,19.04
2023-04-30T17:35:24.427Z,19.01
2023-04-30T17:37:51.842Z,18.98
2023-04-30T17:40:19.056Z,18.94
2023-04-30T17:42:46.790Z,18.94
2023-04-30T17:45:14.782Z,18.90
2023-04-30T17:47:42.359Z,18.90
2023-04-30T17:50:10.024Z,18.92
2023-04-30T17:52:39.137Z,18.93
2023-04-30T17:55:08.840Z,18.89
2023-04-30T17:57:39.454Z,18.88
2023-04-30T18:00:08.300Z,18.86
2023-04-30T18:02:35.854Z,18.83
2023-04-30T18:05:03.320Z,18.81
2023-04-30T18:07:30.551Z,18.81
2023-04-30T18:09:58.273Z,18.81
2023-04-30T18:12:26.112Z,18.77
2023-04-30T18:14:53.673Z,18.77
2023-04-30T18:17:20.654Z,18.76
2023-04-30T18:19:49.687Z,18.81
2023-04-30T18:22:16.757Z,18.84
2023-04-30T18:24:44.063Z,18.85
2023-04-30T18:27:11.344Z,18.87
2023-04-30T18:29:38.733Z,18.89
2023-04-30T18:32:06.307Z,18.95
2023-04-30T18:34:33.817Z,18.99
2023-04-30T18:37:01.302Z,18.98
2023-04-30T18:39:28.740Z,19.03
2023-04-30T18:41:56.340Z,19.06
2023-04-30T18:44:34.833Z,19.07
2023-04-30T18:47:02.088Z,19.09
2023-04-30T18:49:29.354Z,19.11
2023-04-30T18:51:57.080Z,19.16
2023-04-30T18:54:24.472Z,19.20
2023-04-30T18:56:51.740Z,19.22
2023-04-30T18:59:19.747Z,19.24
2023-04-30T19:01:47.160Z,19.26
2023-04-30T19:04:17.561Z,19.31
2023-04-30T19:06:46.716Z,19.34
2023-04-30T19:09:15.859Z,19.38
2023-04-30T19:11:42.995Z,19.39
2023-04-30T19:14:10.860Z,19.41
2023-04-30T19:16:39.097Z,19.44
2023-04-30T19:19:06.445Z,19.48
2023-04-30T19:21:36.828Z,19.50
2023-04-30T19:24:07.863Z,19.51
2023-04-30T19:26:37.963Z,19.53
2023-04-30T19:29:05.753Z,19.53
2023-04-30T19:31:38.290Z,19.54
2023-04-30T19:34:08.270Z,19.54
2023-04-30T19:36:35.574Z,19.57
2023-04-30T19:39:05.009Z,19.52
2023-04-30T19:41:32.910Z,19.47
2023-04-30T19:44:00.192Z,19.48
2023-04-30T19:46:27.739Z,19.48
2023-04-30T19:48:55.945Z,19.51
2023-04-30T19:51:23.617Z,19.52
2023-04-30T19:53:52.922Z,19.48
2023-04-30T19:56:23.103Z,19.48
2023-04-30T19:58:51.720Z,19.47
2023-04-30T20:01:19.407Z,19.48
2023-04-30T20:03:48.050Z,19.48
2023-04-30T20:06:15.956Z,19.46
2023-04-30T20:08:44.560Z,19.46
2023-04-30T20:11:11.851Z,19.45
2023-04-30T20:13:39.168Z,19.45
2023-04-30T20:16:06.880Z,19.42
2023-04-30T20:18:35.159Z,19.40
2023-04-30T20:21:02.834Z,19.34
2023-04-30T20:23:31.931Z,19.30
2023-04-30T20:26:00.173Z,19.31
2023-04-30T20:28:27.465Z,19.28
2023-04-30T20:30:56.553Z,19.25
2023-04-30T20:33:26.198Z,19.23
2023-04-30T20:35:53.620Z,19.20
2023-04-30T20:38:22.632Z,19.18
2023-04-30T20:40:51.068Z,19.15
2023-04-30T20:43:19.697Z,19.14
2023-04-30T20:45:47.314Z,19.12
2023-04-30T20:48:15.339Z,19.11
2023-04-30T20:50:42.635Z,19.09
2023-04-30T20:53:11.284Z,19.17
2023-04-30T20:55:39.294Z,19.18
2023-04-30T20:58:08.494Z,19.13
2023-04-30T21:00:36.801Z,19.05
2023-04-30T21:03:06.459Z,19.02
2023-04-30T21:05:36.397Z,19.00
2023-04-30T21:08:06.572Z,19.00
2023-04-30T21:10:37.022Z,19.02
2023-04-30T21:13:06.499Z,18.89
2023-04-30T21:15:36.273Z,18.66
2023-04-30T21:18:03.829Z,18.54
2023-04-30T21:20:32.256Z,18.47
2023-04-30T21:23:01.248Z,18.41
2023-04-30T21:25:29.705Z,18.37
2023-04-30T21:27:57.862Z,18.31
2023-04-30T21:30:26.939Z,18.25
2023-04-30T21:32:59.185Z,18.19
2023-04-30T21:35:28.084Z,18.16
2023-04-30T21:37:55.693Z,18.12
2023-04-30T21:40:22.955Z,18.09
2023-04-30T21:42:51.649Z,18.02
2023-04-30T21:45:19.123Z,17.99
2023-04-30T21:47:49.042Z,17.94
2023-04-30T21:50:16.661Z,17.92
2023-04-30T21:52:44.828Z,17.87
2023-04-30T21:55:13.067Z,17.85
2023-04-30T21:57:40.529Z,17.79
2023-04-30T22:00:09.294Z,17.77
2023-04-30T22:02:36.879Z,17.73
2023-04-30T22:05:05.350Z,17.71
2023-04-30T22:07:32.703Z,17.67
2023-04-30T22:10:01.317Z,17.64
2023-04-30T22:12:28.674Z,17.62
2023-04-30T22:14:56.348Z,17.59
2023-04-30T22:17:24.017Z,17.58
2023-04-30T22:19:51.498Z,17.53
2023-04-30T22:22:18.719Z,17.49
2023-04-30T22:24:47.261Z,17.44
2023-04-30T22:27:15.372Z,17.42
2023-04-30T22:29:47.219Z,17.41
2023-04-30T22:32:15.426Z,17.37
2023-04-30T22:34:43.804Z,17.37
2023-04-30T22:37:11.791Z,17.33
2023-04-30T22:39:40.286Z,17.29
2023-04-30T22:42:10.003Z,17.29
2023-04-30T22:44:38.174Z,17.27
2023-04-30T22:47:06.523Z,17.25
2023-04-30T22:49:35.611Z,17.23
2023-04-30T22:52:02.767Z,17.19
2023-04-30T22:54:29.873Z,17.17
2023-04-30T22:56:57.636Z,17.14
2023-04-30T22:59:24.865Z,17.13
2023-04-30T23:01:52.074Z,17.11
2023-04-30T23:04:19.495Z,17.09
2023-04-30T23:06:47.312Z,17.08
2023-04-30T23:09:16.249Z,17.04
2023-04-30T23:11:43.596Z,17.01
2023-04-30T23:14:11.066Z,17.00
2023-04-30T23:16:40.596Z,16.99
2023-04-30T23:19:07.993Z,16.97
2023-04-30T23:21:35.576Z,16.96
2023-04-30T23:24:04.424Z,16.93
2023-04-30T23:26:31.634Z,16.93
2023-04-30T23:28:58.731Z,16.90
2023-04-30T23:31:26.003Z,16.92
2023-04-30T23:33:53.111Z,16.91
2023-04-30T23:36:21.130Z,16.87
2023-04-30T23:38:48.474Z,16.84
2023-04-30T23:41:15.750Z,16.80
2023-04-30T23:43:43.028Z,16.79
2023-04-30T23:46:10.227Z,16.77
2023-04-30T23:48:37.835Z,16.75
2023-04-30T23:51:05.935Z,16.73
2023-04-30T23:53:33.116Z,16.71
2023-04-30T23:56:00.404Z,16.71
2023-04-30T23:58:30.575Z,16.71
